sensor_id;sensor_type;location;lat;lon;timestamp;pressure;altitude;pressure_sealevel;temperature;humidity
78665;BME280;67981;51.022;-2.870;2023-07-20T00:00:33;101541.66;;;13.69;94.63
78665;BME280;67981;51.022;-2.870;2023-07-20T00:03:14;101550.31;;;13.70;94.76
78665;BME280;67981;51.022;-2.870;2023-07-20T00:05:47;101589.91;;;13.64;95.38
78665;BME280;67981;51.022;-2.870;2023-07-20T00:08:12;101570.88;;;13.62;95.64
78665;BME280;67981;51.022;-2.870;2023-07-20T00:10:37;101620.72;;;13.52;95.99
78665;BME280;67981;51.022;-2.870;2023-07-20T00:13:03;101609.56;;;13.56;96.16
78665;BME280;67981;51.022;-2.870;2023-07-20T00:15:28;101565.38;;;13.52;95.98
78665;BME280;67981;51.022;-2.870;2023-07-20T00:17:53;101561.75;;;13.47;95.99
78665;BME280;67981;51.022;-2.870;2023-07-20T00:20:19;101543.31;;;13.36;96.39
78665;BME280;67981;51.022;-2.870;2023-07-20T00:22:44;101567.41;;;13.32;96.79
78665;BME280;67981;51.022;-2.870;2023-07-20T00:25:10;101553.53;;;13.30;96.83
78665;BME280;67981;51.022;-2.870;2023-07-20T00:27:37;101575.13;;;13.31;97.08
78665;BME280;67981;51.022;-2.870;2023-07-20T00:30:03;101608.88;;;13.32;97.34
78665;BME280;67981;51.022;-2.870;2023-07-20T00:32:29;101580.28;;;13.29;97.48
78665;BME280;67981;51.022;-2.870;2023-07-20T00:34:54;101614.78;;;13.27;97.90
78665;BME280;67981;51.022;-2.870;2023-07-20T00:37:20;101565.94;;;13.12;98.17
78665;BME280;67981;51.022;-2.870;2023-07-20T00:39:45;101573.00;;;13.18;98.29
78665;BME280;67981;51.022;-2.870;2023-07-20T00:42:11;101561.81;;;13.19;98.65
78665;BME280;67981;51.022;-2.870;2023-07-20T00:44:36;101546.19;;;13.16;98.54
78665;BME280;67981;51.022;-2.870;2023-07-20T00:47:01;101657.19;;;13.02;98.77
78665;BME280;67981;51.022;-2.870;2023-07-20T00:49:27;101579.03;;;13.17;99.22
78665;BME280;67981;51.022;-2.870;2023-07-20T00:51:53;101617.31;;;13.25;98.80
78665;BME280;67981;51.022;-2.870;2023-07-20T00:54:18;101561.78;;;13.17;98.38
78665;BME280;67981;51.022;-2.870;2023-07-20T00:56:44;101548.03;;;13.20;99.17
78665;BME280;67981;51.022;-2.870;2023-07-20T00:59:09;101532.34;;;13.15;98.78
78665;BME280;67981;51.022;-2.870;2023-07-20T01:01:35;101559.38;;;13.23;98.68
78665;BME280;67981;51.022;-2.870;2023-07-20T01:04:01;101532.25;;;13.12;99.42
78665;BME280;67981;51.022;-2.870;2023-07-20T01:06:31;101555.84;;;13.21;99.35
78665;BME280;67981;51.022;-2.870;2023-07-20T01:09:14;101551.41;;;13.17;99.20
78665;BME280;67981;51.022;-2.870;2023-07-20T01:11:59;101546.31;;;13.20;98.84
78665;BME280;67981;51.022;-2.870;2023-07-20T01:14:29;101540.97;;;13.14;99.21
78665;BME280;67981;51.022;-2.870;2023-07-20T01:16:54;101546.19;;;13.16;99.35
78665;BME280;67981;51.022;-2.870;2023-07-20T01:19:20;101530.47;;;13.11;99.16
78665;BME280;67981;51.022;-2.870;2023-07-20T01:21:52;101533.16;;;13.13;99.90
78665;BME280;67981;51.022;-2.870;2023-07-20T01:26:50;101553.72;;;13.08;99.88
78665;BME280;67981;51.022;-2.870;2023-07-20T01:32:05;101532.19;;;13.09;100.00
78665;BME280;67981;51.022;-2.870;2023-07-20T01:34:33;101538.94;;;13.04;100.00
78665;BME280;67981;51.022;-2.870;2023-07-20T01:37:01;101556.22;;;13.05;100.00
78665;BME280;67981;51.022;-2.870;2023-07-20T01:39:27;101534.53;;;13.02;100.00
78665;BME280;67981;51.022;-2.870;2023-07-20T01:41:53;101524.16;;;13.02;100.00
78665;BME280;67981;51.022;-2.870;2023-07-20T01:44:19;101840.09;;;12.97;100.00
78665;BME280;67981;51.022;-2.870;2023-07-20T01:46:44;101833.22;;;12.98;100.00
78665;BME280;67981;51.022;-2.870;2023-07-20T01:49:09;101836.56;;;12.95;100.00
78665;BME280;67981;51.022;-2.870;2023-07-20T01:51:35;101750.78;;;12.86;100.00
78665;BME280;67981;51.022;-2.870;2023-07-20T01:54:00;101744.59;;;12.82;100.00
78665;BME280;67981;51.022;-2.870;2023-07-20T01:56:26;101718.94;;;12.89;100.00
78665;BME280;67981;51.022;-2.870;2023-07-20T01:58:51;101722.31;;;12.88;100.00
78665;BME280;67981;51.022;-2.870;2023-07-20T02:01:17;101702.22;;;12.80;100.00
78665;BME280;67981;51.022;-2.870;2023-07-20T02:03:42;101701.31;;;12.78;100.00
78665;BME280;67981;51.022;-2.870;2023-07-20T02:06:08;101743.88;;;12.87;100.00
78665;BME280;67981;51.022;-2.870;2023-07-20T02:08:33;101732.28;;;12.75;100.00
78665;BME280;67981;51.022;-2.870;2023-07-20T02:10:58;101731.78;;;12.87;100.00
78665;BME280;67981;51.022;-2.870;2023-07-20T02:13:24;101734.25;;;12.82;100.00
78665;BME280;67981;51.022;-2.870;2023-07-20T02:15:49;101670.38;;;12.83;100.00
78665;BME280;67981;51.022;-2.870;2023-07-20T02:18:16;101645.13;;;12.77;100.00
78665;BME280;67981;51.022;-2.870;2023-07-20T02:20:41;101645.13;;;12.77;100.00
78665;BME280;67981;51.022;-2.870;2023-07-20T02:23:07;101634.72;;;12.76;100.00
78665;BME280;67981;51.022;-2.870;2023-07-20T02:25:32;101645.09;;;12.76;100.00
78665;BME280;67981;51.022;-2.870;2023-07-20T02:27:58;101660.44;;;12.70;100.00
78665;BME280;67981;51.022;-2.870;2023-07-20T02:30:24;101645.75;;;12.69;100.00
78665;BME280;67981;51.022;-2.870;2023-07-20T02:32:49;101671.69;;;12.70;100.00
78665;BME280;67981;51.022;-2.870;2023-07-20T02:35:15;101723.53;;;12.72;100.00
78665;BME280;67981;51.022;-2.870;2023-07-20T02:37:41;101721.66;;;12.68;100.00
78665;BME280;67981;51.022;-2.870;2023-07-20T02:40:07;101740.47;;;12.62;100.00
78665;BME280;67981;51.022;-2.870;2023-07-20T02:42:33;101705.72;;;12.56;100.00
78665;BME280;67981;51.022;-2.870;2023-07-20T02:44:58;101734.34;;;12.60;100.00
78665;BME280;67981;51.022;-2.870;2023-07-20T02:47:24;101732.56;;;12.58;100.00
78665;BME280;67981;51.022;-2.870;2023-07-20T02:49:49;101755.16;;;12.63;100.00
78665;BME280;67981;51.022;-2.870;2023-07-20T02:52:14;101694.41;;;12.54;100.00
78665;BME280;67981;51.022;-2.870;2023-07-20T02:54:40;101668.56;;;12.55;100.00
78665;BME280;67981;51.022;-2.870;2023-07-20T02:57:05;101686.41;;;12.46;100.00
78665;BME280;67981;51.022;-2.870;2023-07-20T02:59:31;101719.28;;;12.49;100.00
78665;BME280;67981;51.022;-2.870;2023-07-20T03:01:56;101668.53;;;12.54;100.00
78665;BME280;67981;51.022;-2.870;2023-07-20T03:04:23;101679.03;;;12.58;100.00
78665;BME280;67981;51.022;-2.870;2023-07-20T03:06:49;101662.22;;;12.46;100.00
78665;BME280;67981;51.022;-2.870;2023-07-20T03:09:14;101671.72;;;12.47;100.00
78665;BME280;67981;51.022;-2.870;2023-07-20T03:11:41;101664.72;;;12.43;100.00
78665;BME280;67981;51.022;-2.870;2023-07-20T03:14:06;101636.88;;;12.37;100.00
78665;BME280;67981;51.022;-2.870;2023-07-20T03:16:31;101646.34;;;12.35;100.00
78665;BME280;67981;51.022;-2.870;2023-07-20T03:18:59;101646.38;;;12.37;99.77
78665;BME280;67981;51.022;-2.870;2023-07-20T03:21:25;101629.72;;;12.29;99.69
78665;BME280;67981;51.022;-2.870;2023-07-20T03:23:51;101603.22;;;12.11;100.00
78665;BME280;67981;51.022;-2.870;2023-07-20T03:26:16;101610.91;;;12.09;100.00
78665;BME280;67981;51.022;-2.870;2023-07-20T03:28:42;101623.50;;;12.00;100.00
78665;BME280;67981;51.022;-2.870;2023-07-20T03:31:07;101669.38;;;12.04;100.00
78665;BME280;67981;51.022;-2.870;2023-07-20T03:33:33;101650.88;;;11.94;100.00
78665;BME280;67981;51.022;-2.870;2023-07-20T03:35:59;101708.25;;;11.82;100.00
78665;BME280;67981;51.022;-2.870;2023-07-20T03:38:26;101683.03;;;11.77;100.00
78665;BME280;67981;51.022;-2.870;2023-07-20T03:40:59;101712.25;;;11.74;100.00
78665;BME280;67981;51.022;-2.870;2023-07-20T03:43:26;101690.66;;;11.74;100.00
78665;BME280;67981;51.022;-2.870;2023-07-20T03:45:53;101692.47;;;11.76;100.00
78665;BME280;67981;51.022;-2.870;2023-07-20T03:48:21;101720.00;;;11.74;100.00
78665;BME280;67981;51.022;-2.870;2023-07-20T03:50:47;101736.38;;;11.75;100.00
78665;BME280;67981;51.022;-2.870;2023-07-20T03:53:13;101752.63;;;11.71;100.00
78665;BME280;67981;51.022;-2.870;2023-07-20T03:55:39;101763.00;;;11.72;100.00
78665;BME280;67981;51.022;-2.870;2023-07-20T03:58:06;101773.19;;;11.68;100.00
78665;BME280;67981;51.022;-2.870;2023-07-20T04:00:32;101783.38;;;11.65;100.00
78665;BME280;67981;51.022;-2.870;2023-07-20T04:02:57;101793.88;;;11.68;100.00
78665;BME280;67981;51.022;-2.870;2023-07-20T04:05:22;101811.97;;;11.68;100.00
78665;BME280;67981;51.022;-2.870;2023-07-20T04:07:48;101844.56;;;11.64;100.00
78665;BME280;67981;51.022;-2.870;2023-07-20T04:10:13;101825.31;;;11.58;100.00
78665;BME280;67981;51.022;-2.870;2023-07-20T04:12:38;101824.44;;;11.57;100.00
78665;BME280;67981;51.022;-2.870;2023-07-20T04:15:04;101853.31;;;11.47;100.00
78665;BME280;67981;51.022;-2.870;2023-07-20T04:17:30;101859.66;;;11.55;100.00
78665;BME280;67981;51.022;-2.870;2023-07-20T04:19:55;101828.34;;;11.48;100.00
78665;BME280;67981;51.022;-2.870;2023-07-20T04:22:20;101850.59;;;11.65;100.00
78665;BME280;67981;51.022;-2.870;2023-07-20T04:24:46;101863.09;;;11.75;100.00
78665;BME280;67981;51.022;-2.870;2023-07-20T04:27:12;101914.56;;;11.69;100.00
78665;BME280;67981;51.022;-2.870;2023-07-20T04:29:37;101893.13;;;11.71;100.00
78665;BME280;67981;51.022;-2.870;2023-07-20T04:32:03;101832.50;;;11.65;100.00
78665;BME280;67981;51.022;-2.870;2023-07-20T04:34:28;101846.28;;;11.64;100.00
78665;BME280;67981;51.022;-2.870;2023-07-20T04:36:54;101827.84;;;11.56;100.00
78665;BME280;67981;51.022;-2.870;2023-07-20T04:39:19;101844.31;;;11.58;100.00
78665;BME280;67981;51.022;-2.870;2023-07-20T04:41:44;101851.78;;;11.52;100.00
78665;BME280;67981;51.022;-2.870;2023-07-20T04:44:10;101862.66;;;11.43;100.00
78665;BME280;67981;51.022;-2.870;2023-07-20T04:46:35;101894.47;;;11.42;100.00
78665;BME280;67981;51.022;-2.870;2023-07-20T04:49:01;101886.78;;;11.44;100.00
78665;BME280;67981;51.022;-2.870;2023-07-20T04:51:27;101897.00;;;11.41;100.00
78665;BME280;67981;51.022;-2.870;2023-07-20T04:53:52;101913.28;;;11.38;100.00
78665;BME280;67981;51.022;-2.870;2023-07-20T04:56:18;101923.44;;;11.55;100.00
78665;BME280;67981;51.022;-2.870;2023-07-20T04:58:43;101902.88;;;11.58;100.00
78665;BME280;67981;51.022;-2.870;2023-07-20T05:01:08;101954.13;;;11.66;100.00
78665;BME280;67981;51.022;-2.870;2023-07-20T05:03:34;101974.63;;;11.82;100.00
78665;BME280;67981;51.022;-2.870;2023-07-20T05:05:59;101960.16;;;11.87;100.00
78665;BME280;67981;51.022;-2.870;2023-07-20T05:08:25;102014.03;;;11.97;100.00
78665;BME280;67981;51.022;-2.870;2023-07-20T05:10:50;102042.00;;;12.06;100.00
78665;BME280;67981;51.022;-2.870;2023-07-20T05:13:16;102017.31;;;12.14;100.00
78665;BME280;67981;51.022;-2.870;2023-07-20T05:15:41;101948.06;;;12.29;100.00
78665;BME280;67981;51.022;-2.870;2023-07-20T05:18:07;101923.22;;;12.34;100.00
78665;BME280;67981;51.022;-2.870;2023-07-20T05:20:34;101917.28;;;12.36;100.00
78665;BME280;67981;51.022;-2.870;2023-07-20T05:22:59;101960.34;;;12.56;100.00
78665;BME280;67981;51.022;-2.870;2023-07-20T05:25:26;101924.34;;;12.62;100.00
78665;BME280;67981;51.022;-2.870;2023-07-20T05:27:51;101922.88;;;12.69;100.00
78665;BME280;67981;51.022;-2.870;2023-07-20T05:30:17;101911.44;;;12.64;100.00
78665;BME280;67981;51.022;-2.870;2023-07-20T05:32:44;101893.31;;;12.64;100.00
78665;BME280;67981;51.022;-2.870;2023-07-20T05:35:13;101900.66;;;12.75;99.91
78665;BME280;67981;51.022;-2.870;2023-07-20T05:37:39;101897.38;;;12.81;99.64
78665;BME280;67981;51.022;-2.870;2023-07-20T05:40:05;101906.06;;;12.81;99.16
78665;BME280;67981;51.022;-2.870;2023-07-20T05:42:31;101908.59;;;12.80;99.38
78665;BME280;67981;51.022;-2.870;2023-07-20T05:44:56;101918.00;;;12.78;99.17
78665;BME280;67981;51.022;-2.870;2023-07-20T05:47:22;101913.72;;;12.78;99.46
78665;BME280;67981;51.022;-2.870;2023-07-20T05:49:47;101896.34;;;12.76;99.62
78665;BME280;67981;51.022;-2.870;2023-07-20T05:52:13;101895.59;;;12.78;99.81
78665;BME280;67981;51.022;-2.870;2023-07-20T05:54:38;101894.09;;;12.85;99.37
78665;BME280;67981;51.022;-2.870;2023-07-20T05:57:04;101912.97;;;13.05;98.91
78665;BME280;67981;51.022;-2.870;2023-07-20T05:59:29;101909.97;;;13.18;97.75
78665;BME280;67981;51.022;-2.870;2023-07-20T06:01:55;101904.97;;;13.22;97.24
78665;BME280;67981;51.022;-2.870;2023-07-20T06:04:20;101903.63;;;13.33;96.44
78665;BME280;67981;51.022;-2.870;2023-07-20T06:06:46;101904.66;;;13.38;95.83
78665;BME280;67981;51.022;-2.870;2023-07-20T06:09:11;101916.97;;;13.45;95.56
78665;BME280;67981;51.022;-2.870;2023-07-20T06:11:38;101906.28;;;13.61;95.11
78665;BME280;67981;51.022;-2.870;2023-07-20T06:14:04;101918.81;;;13.74;93.91
78665;BME280;67981;51.022;-2.870;2023-07-20T06:16:29;101920.66;;;13.77;93.61
78665;BME280;67981;51.022;-2.870;2023-07-20T06:18:55;101905.91;;;13.76;92.79
78665;BME280;67981;51.022;-2.870;2023-07-20T06:21:20;101898.97;;;13.75;93.04
78665;BME280;67981;51.022;-2.870;2023-07-20T06:23:45;101911.41;;;13.85;93.29
78665;BME280;67981;51.022;-2.870;2023-07-20T06:26:11;101920.63;;;14.03;92.58
78665;BME280;67981;51.022;-2.870;2023-07-20T06:28:36;101907.88;;;14.11;91.95
78665;BME280;67981;51.022;-2.870;2023-07-20T06:31:02;101903.84;;;14.19;91.09
78665;BME280;67981;51.022;-2.870;2023-07-20T06:33:29;101904.75;;;14.21;90.98
78665;BME280;67981;51.022;-2.870;2023-07-20T06:35:54;101917.22;;;14.31;89.96
78665;BME280;67981;51.022;-2.870;2023-07-20T06:38:22;101969.25;;;14.34;89.14
78665;BME280;67981;51.022;-2.870;2023-07-20T06:40:48;101914.66;;;14.33;89.18
78665;BME280;67981;51.022;-2.870;2023-07-20T06:43:14;101940.03;;;14.41;89.06
78665;BME280;67981;51.022;-2.870;2023-07-20T06:45:40;101957.88;;;14.59;88.00
78665;BME280;67981;51.022;-2.870;2023-07-20T06:48:05;101914.31;;;14.50;86.77
78665;BME280;67981;51.022;-2.870;2023-07-20T06:50:31;101941.88;;;14.73;86.57
78665;BME280;67981;51.022;-2.870;2023-07-20T06:52:56;101928.31;;;14.83;85.51
78665;BME280;67981;51.022;-2.870;2023-07-20T06:55:22;101927.88;;;14.98;85.02
78665;BME280;67981;51.022;-2.870;2023-07-20T06:57:47;101939.88;;;15.25;84.96
78665;BME280;67981;51.022;-2.870;2023-07-20T07:00:13;101921.78;;;15.28;84.07
78665;BME280;67981;51.022;-2.870;2023-07-20T07:02:39;101891.63;;;15.04;84.17
78665;BME280;67981;51.022;-2.870;2023-07-20T07:05:04;101915.81;;;15.01;84.62
78665;BME280;67981;51.022;-2.870;2023-07-20T07:07:30;101933.06;;;15.30;84.49
78665;BME280;67981;51.022;-2.870;2023-07-20T07:09:56;101936.19;;;15.48;83.28
78665;BME280;67981;51.022;-2.870;2023-07-20T07:12:21;101939.28;;;15.67;83.39
78665;BME280;67981;51.022;-2.870;2023-07-20T07:14:46;101925.50;;;15.72;85.41
78665;BME280;67981;51.022;-2.870;2023-07-20T07:17:12;101917.84;;;15.77;85.50
78665;BME280;67981;51.022;-2.870;2023-07-20T07:19:37;101934.69;;;15.92;85.08
78665;BME280;67981;51.022;-2.870;2023-07-20T07:22:04;101905.44;;;15.67;86.02
78665;BME280;67981;51.022;-2.870;2023-07-20T07:24:29;101908.31;;;15.79;85.92
78665;BME280;67981;51.022;-2.870;2023-07-20T07:26:59;101922.69;;;15.97;85.87
78665;BME280;67981;51.022;-2.870;2023-07-20T07:29:24;101892.84;;;15.83;83.53
78665;BME280;67981;51.022;-2.870;2023-07-20T07:31:50;101933.63;;;16.20;81.50
78665;BME280;67981;51.022;-2.870;2023-07-20T07:34:16;101953.94;;;16.34;79.76
78665;BME280;67981;51.022;-2.870;2023-07-20T07:36:41;101911.97;;;16.22;79.23
78665;BME280;67981;51.022;-2.870;2023-07-20T07:39:07;101932.31;;;16.38;78.55
78665;BME280;67981;51.022;-2.870;2023-07-20T07:41:32;101878.78;;;16.12;76.65
78665;BME280;67981;51.022;-2.870;2023-07-20T07:43:57;101888.53;;;16.22;76.01
78665;BME280;67981;51.022;-2.870;2023-07-20T07:46:23;101875.31;;;16.13;76.08
78665;BME280;67981;51.022;-2.870;2023-07-20T07:48:48;101908.13;;;16.44;74.91
78665;BME280;67981;51.022;-2.870;2023-07-20T07:51:14;101893.72;;;16.22;74.51
78665;BME280;67981;51.022;-2.870;2023-07-20T07:53:40;101886.84;;;16.24;74.90
78665;BME280;67981;51.022;-2.870;2023-07-20T07:56:09;101879.03;;;16.24;74.39
78665;BME280;67981;51.022;-2.870;2023-07-20T07:58:34;101872.94;;;16.24;72.95
78665;BME280;67981;51.022;-2.870;2023-07-20T08:01:00;101885.34;;;16.35;74.09
78665;BME280;67981;51.022;-2.870;2023-07-20T08:03:25;101876.66;;;16.35;75.16
78665;BME280;67981;51.022;-2.870;2023-07-20T08:05:54;101898.03;;;16.57;75.61
78665;BME280;67981;51.022;-2.870;2023-07-20T08:08:20;101876.25;;;16.54;73.57
78665;BME280;67981;51.022;-2.870;2023-07-20T08:10:45;101866.44;;;16.44;73.50
78665;BME280;67981;51.022;-2.870;2023-07-20T08:13:11;101871.59;;;16.42;74.06
78665;BME280;67981;51.022;-2.870;2023-07-20T08:15:36;101882.56;;;16.66;73.92
78665;BME280;67981;51.022;-2.870;2023-07-20T08:18:02;101896.84;;;16.85;71.69
78665;BME280;67981;51.022;-2.870;2023-07-20T08:20:27;101879.59;;;16.91;70.20
78665;BME280;67981;51.022;-2.870;2023-07-20T08:22:54;101883.97;;;16.92;72.34
78665;BME280;67981;51.022;-2.870;2023-07-20T08:25:20;101859.63;;;16.92;71.23
78665;BME280;67981;51.022;-2.870;2023-07-20T08:27:45;101862.25;;;16.93;71.41
78665;BME280;67981;51.022;-2.870;2023-07-20T08:30:12;101898.31;;;17.17;71.94
78665;BME280;67981;51.022;-2.870;2023-07-20T08:32:38;101904.16;;;17.47;69.38
78665;BME280;67981;51.022;-2.870;2023-07-20T08:35:03;101900.94;;;17.63;69.05
78665;BME280;67981;51.022;-2.870;2023-07-20T08:37:29;101886.06;;;17.59;67.02
78665;BME280;67981;51.022;-2.870;2023-07-20T08:39:54;101861.47;;;17.45;65.42
78665;BME280;67981;51.022;-2.870;2023-07-20T08:42:20;101848.16;;;17.32;65.88
78665;BME280;67981;51.022;-2.870;2023-07-20T08:44:48;101857.81;;;17.37;65.58
78665;BME280;67981;51.022;-2.870;2023-07-20T08:47:16;101838.38;;;17.19;65.16
78665;BME280;67981;51.022;-2.870;2023-07-20T08:49:41;101840.28;;;17.29;66.97
78665;BME280;67981;51.022;-2.870;2023-07-20T08:52:08;101833.22;;;17.22;67.84
78665;BME280;67981;51.022;-2.870;2023-07-20T08:54:34;101868.63;;;17.57;68.22
78665;BME280;67981;51.022;-2.870;2023-07-20T08:57:05;101851.16;;;17.53;67.85
78665;BME280;67981;51.022;-2.870;2023-07-20T08:59:31;101836.09;;;17.38;69.47
78665;BME280;67981;51.022;-2.870;2023-07-20T09:01:58;101861.59;;;17.53;68.80
78665;BME280;67981;51.022;-2.870;2023-07-20T09:04:24;101872.84;;;17.49;69.77
78665;BME280;67981;51.022;-2.870;2023-07-20T09:06:50;101844.13;;;17.47;68.76
78665;BME280;67981;51.022;-2.870;2023-07-20T09:09:16;101843.34;;;17.54;69.15
78665;BME280;67981;51.022;-2.870;2023-07-20T09:11:41;101828.50;;;17.50;69.31
78665;BME280;67981;51.022;-2.870;2023-07-20T09:14:08;101884.03;;;17.95;69.45
78665;BME280;67981;51.022;-2.870;2023-07-20T09:16:52;101882.53;;;18.12;67.68
78665;BME280;67981;51.022;-2.870;2023-07-20T09:19:18;101819.22;;;17.70;67.95
78665;BME280;67981;51.022;-2.870;2023-07-20T09:21:48;101873.72;;;18.04;68.53
78665;BME280;67981;51.022;-2.870;2023-07-20T09:24:14;101838.63;;;17.84;67.59
78665;BME280;67981;51.022;-2.870;2023-07-20T09:26:44;101847.50;;;17.97;67.27
78665;BME280;67981;51.022;-2.870;2023-07-20T09:29:09;101820.47;;;17.95;65.33
78665;BME280;67981;51.022;-2.870;2023-07-20T09:31:35;101856.63;;;18.27;64.37
78665;BME280;67981;51.022;-2.870;2023-07-20T09:34:01;101845.53;;;18.42;65.20
78665;BME280;67981;51.022;-2.870;2023-07-20T09:36:27;101860.53;;;18.57;64.30
78665;BME280;67981;51.022;-2.870;2023-07-20T09:38:52;101812.00;;;18.14;64.76
78665;BME280;67981;51.022;-2.870;2023-07-20T09:41:18;101844.72;;;18.48;64.30
78665;BME280;67981;51.022;-2.870;2023-07-20T09:43:45;101841.41;;;18.62;62.64
78665;BME280;67981;51.022;-2.870;2023-07-20T09:46:10;101845.88;;;18.71;61.69
78665;BME280;67981;51.022;-2.870;2023-07-20T09:48:36;101822.19;;;18.57;61.29
78665;BME280;67981;51.022;-2.870;2023-07-20T09:51:01;101820.53;;;18.64;60.64
78665;BME280;67981;51.022;-2.870;2023-07-20T09:53:28;101832.81;;;18.72;62.02
78665;BME280;67981;51.022;-2.870;2023-07-20T09:55:54;101827.75;;;18.86;61.81
78665;BME280;67981;51.022;-2.870;2023-07-20T09:58:21;101843.72;;;19.14;61.56
78665;BME280;67981;51.022;-2.870;2023-07-20T10:00:48;101826.19;;;19.09;60.62
78665;BME280;67981;51.022;-2.870;2023-07-20T10:03:21;101813.09;;;19.07;61.34
78665;BME280;67981;51.022;-2.870;2023-07-20T10:06:06;101809.44;;;18.87;62.88
78665;BME280;67981;51.022;-2.870;2023-07-20T10:08:38;101812.22;;;19.02;60.42
78665;BME280;67981;51.022;-2.870;2023-07-20T10:11:05;101785.06;;;18.91;60.07
78665;BME280;67981;51.022;-2.870;2023-07-20T10:13:37;101792.09;;;18.98;61.45
78665;BME280;67981;51.022;-2.870;2023-07-20T10:18:34;101823.94;;;19.45;60.57
78665;BME280;67981;51.022;-2.870;2023-07-20T10:21:04;101845.97;;;19.68;59.74
78665;BME280;67981;51.022;-2.870;2023-07-20T10:23:33;101826.72;;;19.61;59.07
78665;BME280;67981;51.022;-2.870;2023-07-20T10:25:58;101786.81;;;20.09;58.26
78665;BME280;67981;51.022;-2.870;2023-07-20T10:28:25;101787.81;;;20.29;57.29
78665;BME280;67981;51.022;-2.870;2023-07-20T10:30:52;101797.41;;;20.23;58.63
78665;BME280;67981;51.022;-2.870;2023-07-20T10:33:18;101957.38;;;20.38;56.21
78665;BME280;67981;51.022;-2.870;2023-07-20T10:35:54;101803.59;;;20.44;56.60
78665;BME280;67981;51.022;-2.870;2023-07-20T10:38:38;101752.75;;;20.14;56.02
78665;BME280;67981;51.022;-2.870;2023-07-20T10:41:04;101755.38;;;20.14;56.30
78665;BME280;67981;51.022;-2.870;2023-07-20T10:43:29;101732.47;;;19.73;58.22
78665;BME280;67981;51.022;-2.870;2023-07-20T10:45:55;101755.28;;;19.93;58.75
78665;BME280;67981;51.022;-2.870;2023-07-20T10:48:24;101725.34;;;19.45;59.26
78665;BME280;67981;51.022;-2.870;2023-07-20T10:53:34;101743.84;;;19.74;58.61
78665;BME280;67981;51.022;-2.870;2023-07-20T10:58:33;101704.31;;;19.33;59.74
78665;BME280;67981;51.022;-2.870;2023-07-20T11:01:03;101736.78;;;19.59;59.47
78665;BME280;67981;51.022;-2.870;2023-07-20T11:03:31;101776.31;;;20.03;57.19
78665;BME280;67981;51.022;-2.870;2023-07-20T11:05:57;101750.09;;;19.99;55.98
78665;BME280;67981;51.022;-2.870;2023-07-20T11:08:41;101751.97;;;20.27;56.29
78665;BME280;67981;51.022;-2.870;2023-07-20T11:11:30;101830.00;;;21.09;56.04
78665;BME280;67981;51.022;-2.870;2023-07-20T11:14:02;101802.03;;;21.13;54.31
78665;BME280;67981;51.022;-2.870;2023-07-20T11:19:01;101710.94;;;20.56;55.38
78665;BME280;67981;51.022;-2.870;2023-07-20T11:21:27;101726.72;;;20.63;55.12
78665;BME280;67981;51.022;-2.870;2023-07-20T11:23:53;101721.44;;;20.59;55.32
78665;BME280;67981;51.022;-2.870;2023-07-20T11:26:19;101724.06;;;20.48;56.07
78665;BME280;67981;51.022;-2.870;2023-07-20T11:28:53;101674.09;;;20.05;55.48
78665;BME280;67981;51.022;-2.870;2023-07-20T11:31:19;101693.38;;;20.17;55.96
78665;BME280;67981;51.022;-2.870;2023-07-20T11:33:44;101646.94;;;19.85;55.60
78665;BME280;67981;51.022;-2.870;2023-07-20T11:36:10;101686.41;;;20.16;55.32
78665;BME280;67981;51.022;-2.870;2023-07-20T11:38:35;101689.91;;;20.21;52.74
78665;BME280;67981;51.022;-2.870;2023-07-20T11:41:02;101730.19;;;20.61;53.88
78665;BME280;67981;51.022;-2.870;2023-07-20T11:43:29;101724.97;;;20.80;52.53
78665;BME280;67981;51.022;-2.870;2023-07-20T11:45:55;101724.09;;;20.81;53.50
78665;BME280;67981;51.022;-2.870;2023-07-20T11:48:20;101690.84;;;20.64;52.74
78665;BME280;67981;51.022;-2.870;2023-07-20T11:50:46;101702.22;;;20.73;53.10
78665;BME280;67981;51.022;-2.870;2023-07-20T11:53:12;101723.22;;;20.96;51.58
78665;BME280;67981;51.022;-2.870;2023-07-20T11:55:39;101741.66;;;21.26;51.35
78665;BME280;67981;51.022;-2.870;2023-07-20T11:58:06;101660.25;;;20.94;52.95
78665;BME280;67981;51.022;-2.870;2023-07-20T12:00:36;101628.78;;;20.63;53.41
78665;BME280;67981;51.022;-2.870;2023-07-20T12:03:05;101639.25;;;20.54;54.43
78665;BME280;67981;51.022;-2.870;2023-07-20T12:05:34;101643.66;;;20.73;54.08
78665;BME280;67981;51.022;-2.870;2023-07-20T12:08:00;101631.41;;;20.63;54.46
78665;BME280;67981;51.022;-2.870;2023-07-20T12:10:26;101610.41;;;20.31;55.43
78665;BME280;67981;51.022;-2.870;2023-07-20T12:12:53;101619.16;;;20.29;56.03
78665;BME280;67981;51.022;-2.870;2023-07-20T12:15:26;101606.91;;;20.26;55.79
78665;BME280;67981;51.022;-2.870;2023-07-20T12:17:53;101599.06;;;20.31;55.36
78665;BME280;67981;51.022;-2.870;2023-07-20T12:20:45;101654.16;;;20.71;55.67
78665;BME280;67981;51.022;-2.870;2023-07-20T12:23:12;101613.94;;;20.63;55.23
78665;BME280;67981;51.022;-2.870;2023-07-20T12:25:43;101600.78;;;20.77;55.62
78665;BME280;67981;51.022;-2.870;2023-07-20T12:28:12;101588.56;;;20.77;55.13
78665;BME280;67981;51.022;-2.870;2023-07-20T12:30:39;101557.97;;;20.22;56.65
78665;BME280;67981;51.022;-2.870;2023-07-20T12:33:05;101588.59;;;20.49;55.60
78665;BME280;67981;51.022;-2.870;2023-07-20T12:35:32;101581.56;;;20.52;54.87
78665;BME280;67981;51.022;-2.870;2023-07-20T12:37:57;101545.69;;;20.14;54.62
78665;BME280;67981;51.022;-2.870;2023-07-20T12:40:23;101588.56;;;20.53;54.50
78665;BME280;67981;51.022;-2.870;2023-07-20T12:42:49;101570.19;;;20.43;54.18
78665;BME280;67981;51.022;-2.870;2023-07-20T12:45:14;101568.47;;;20.43;53.86
78665;BME280;67981;51.022;-2.870;2023-07-20T12:47:40;101572.84;;;20.52;54.68
78665;BME280;67981;51.022;-2.870;2023-07-20T12:50:06;101585.06;;;20.65;53.59